Time;durP1;ratioP1;P1;durP2;ratioP2;P2;SDS_P1;SDS_P2;PMS_P1;PMS_P2;Temp;Humidity;BMP_temperature;BMP_pressure;BME280_temperature;BME280_humidity;BME280_pressure;Samples;Min_cycle;Max_cycle;Signal;HPM_P1;HPM_P2
2023/08/29 00:00:39;;;;;;;0.32;0.32;;;22.60;99.90;;;;;;5084512;28;20146;-77
2023/08/29 00:03:07;;;;;;;0.55;0.55;;;22.60;99.90;;;;;;5084674;28;20566;-78
2023/08/29 00:05:34;;;;;;;0.10;0.10;;;22.70;99.90;;;;;;5084531;28;20517;-78
2023/08/29 00:08:05;;;;;;;0.00;0.00;;;22.80;99.90;;;;;;5084853;28;20536;-77
2023/08/29 00:10:31;;;;;;;0.00;0.00;;;22.80;99.90;;;;;;5066456;28;20028;-77
2023/08/29 00:12:58;;;;;;;0.00;0.00;;;22.80;99.90;;;;;;5085165;28;20043;-78
2023/08/29 00:15:25;;;;;;;0.25;0.25;;;22.70;99.90;;;;;;5084454;28;20020;-78
2023/08/29 00:17:51;;;;;;;0.68;0.60;;;22.90;99.90;;;;;;5084267;28;20044;-77
2023/08/29 00:20:17;;;;;;;0.05;0.05;;;22.80;99.90;;;;;;5083563;28;20032;-77
2023/08/29 00:22:44;;;;;;;0.75;0.68;;;22.90;99.90;;;;;;5066228;28;20046;-78
2023/08/29 00:25:12;;;;;;;1.25;1.15;;;22.90;99.90;;;;;;5084741;28;20067;-75
2023/08/29 00:27:38;;;;;;;0.10;0.10;;;22.90;99.90;;;;;;5066606;28;20584;-76
2023/08/29 00:30:05;;;;;;;3.35;2.50;;;23.10;99.90;;;;;;5085718;28;20116;-76
2023/08/29 00:32:33;;;;;;;0.40;0.40;;;22.90;99.90;;;;;;5065879;28;20020;-80
2023/08/29 00:34:58;;;;;;;2.38;2.20;;;23.30;99.90;;;;;;5084179;28;20418;-80
2023/08/29 00:37:27;;;;;;;1.35;1.17;;;22.90;99.90;;;;;;5065695;28;20117;-76
2023/08/29 00:39:54;;;;;;;1.67;1.58;;;24.80;99.90;;;;;;5083952;28;20032;-77
2023/08/29 00:42:20;;;;;;;0.63;0.63;;;23.00;99.90;;;;;;5066403;28;20026;-80
2023/08/29 00:44:47;;;;;;;0.20;0.20;;;23.20;99.90;;;;;;5084082;28;20079;-76
2023/08/29 00:47:13;;;;;;;1.20;0.98;;;23.20;99.90;;;;;;5084190;28;20129;-76
2023/08/29 00:49:40;;;;;;;0.08;0.08;;;23.10;99.90;;;;;;5084174;28;20246;-77
2023/08/29 00:52:06;;;;;;;0.95;0.85;;;23.60;99.90;;;;;;5066112;28;20375;-76
2023/08/29 00:54:36;;;;;;;0.60;0.50;;;22.50;99.90;;;;;;5066029;28;20382;-76
2023/08/29 00:57:04;;;;;;;0.68;0.68;;;22.50;99.90;;;;;;5084352;28;20716;-77
2023/08/29 00:59:31;;;;;;;0.65;0.65;;;23.10;99.90;;;;;;5084676;28;20032;-76
2023/08/29 01:01:57;;;;;;;0.32;0.32;;;22.80;99.90;;;;;;5083878;28;20048;-77
2023/08/29 01:04:24;;;;;;;0.10;0.10;;;23.50;99.90;;;;;;5083872;28;20020;-76
2023/08/29 01:06:50;;;;;;;0.35;0.35;;;22.70;99.90;;;;;;5083672;28;20085;-77
2023/08/29 01:09:17;;;;;;;2.58;2.38;;;19.80;99.90;;;;;;5083736;28;20016;-77
2023/08/29 01:12:04;;;;;;;0.20;0.20;;;22.60;99.90;;;;;;5084105;28;20088;-76
2023/08/29 01:14:48;;;;;;;4.38;4.03;;;22.40;99.90;;;;;;5064470;28;20027;-78
2023/08/29 01:17:31;;;;;;;0.05;0.05;;;22.40;99.90;;;;;;5061736;28;20044;-78
2023/08/29 01:20:00;;;;;;;1.50;1.40;;;22.50;99.90;;;;;;5061340;28;20037;-77
2023/08/29 01:22:38;;;;;;;0.30;0.30;;;22.80;99.90;;;;;;5062532;28;20013;-77
2023/08/29 01:25:26;;;;;;;0.13;0.13;;;22.60;99.90;;;;;;5061798;28;20602;-78
2023/08/29 01:27:53;;;;;;;1.05;1.05;;;22.90;99.90;;;;;;5063034;28;20677;-76
2023/08/29 01:30:22;;;;;;;0.10;0.10;;;23.00;99.90;;;;;;5063616;28;20522;-78
2023/08/29 01:32:49;;;;;;;0.00;0.00;;;22.00;99.90;;;;;;5061399;28;20024;-77
2023/08/29 01:35:21;;;;;;;0.05;0.05;;;22.80;99.90;;;;;;5062581;28;20024;-77
2023/08/29 01:37:50;;;;;;;0.43;0.43;;;22.40;99.90;;;;;;5060452;28;20524;-77
2023/08/29 01:40:16;;;;;;;0.52;0.52;;;23.10;99.90;;;;;;5060617;28;20040;-77
2023/08/29 01:42:43;;;;;;;1.45;1.38;;;22.30;99.90;;;;;;5060559;28;20019;-76
2023/08/29 01:45:11;;;;;;;0.70;0.63;;;21.90;99.90;;;;;;5063988;28;20506;-76
2023/08/29 01:47:42;;;;;;;0.00;0.00;;;22.30;99.90;;;;;;5061999;28;20016;-77
2023/08/29 01:50:09;;;;;;;0.40;0.40;;;22.70;99.90;;;;;;5062839;28;20092;-77
2023/08/29 01:52:36;;;;;;;0.00;0.00;;;22.50;99.90;;;;;;5061526;28;20537;-77
2023/08/29 01:55:03;;;;;;;0.00;0.00;;;22.80;99.90;;;;;;5061095;28;20048;-77
2023/08/29 01:57:34;;;;;;;0.20;0.20;;;22.90;99.90;;;;;;5060912;28;20028;-76
2023/08/29 02:00:09;;;;;;;0.22;0.22;;;22.40;99.90;;;;;;5060098;28;20485;-76
2023/08/29 02:02:38;;;;;;;0.20;0.20;;;21.90;99.90;;;;;;5060502;28;20027;-78
2023/08/29 02:05:05;;;;;;;0.00;0.00;;;21.50;99.90;;;;;;5059843;28;20267;-78
2023/08/29 02:07:31;;;;;;;0.25;0.25;;;21.20;99.90;;;;;;5061725;28;20032;-79
2023/08/29 02:09:58;;;;;;;0.68;0.68;;;21.40;99.90;;;;;;5060151;28;20024;-74
2023/08/29 02:12:24;;;;;;;0.00;0.00;;;21.30;99.90;;;;;;5061147;28;20100;-76
2023/08/29 02:14:50;;;;;;;0.00;0.00;;;;;;;;;;5061775;28;20043;-76
2023/08/29 02:17:18;;;;;;;1.65;1.65;;;21.40;99.90;;;;;;5060875;28;20048;-78
2023/08/29 02:19:45;;;;;;;0.00;0.00;;;21.80;99.90;;;;;;5060388;28;20036;-77
2023/08/29 02:22:12;;;;;;;0.63;0.63;;;21.80;99.90;;;;;;5060507;28;20486;-76
2023/08/29 02:24:39;;;;;;;1.65;1.38;;;21.60;99.90;;;;;;5060625;28;20024;-76
2023/08/29 02:27:06;;;;;;;0.10;0.10;;;20.80;99.90;;;;;;5060249;28;20121;-79
2023/08/29 02:29:32;;;;;;;0.10;0.10;;;21.90;99.90;;;;;;5060135;28;20025;-76
2023/08/29 02:31:59;;;;;;;0.22;0.22;;;;;;;;;;5059861;28;20020;-77
2023/08/29 02:34:26;;;;;;;0.80;0.50;;;21.00;99.90;;;;;;5060432;28;20020;-79
2023/08/29 02:36:53;;;;;;;0.00;0.00;;;20.60;99.90;;;;;;5061954;28;20090;-79
2023/08/29 02:39:19;;;;;;;0.08;0.08;;;20.10;99.90;;;;;;5062095;28;20213;-79
2023/08/29 02:41:46;;;;;;;0.30;0.30;;;19.60;99.90;;;;;;5060971;28;20070;-78
2023/08/29 02:44:13;;;;;;;0.00;0.00;;;19.90;99.90;;;;;;5060983;28;20100;-79
2023/08/29 02:46:39;;;;;;;0.25;0.25;;;20.00;99.90;;;;;;5060646;28;20036;-79
2023/08/29 02:49:06;;;;;;;0.10;0.10;;;20.20;99.90;;;;;;5060965;28;20112;-82
2023/08/29 02:51:32;;;;;;;0.10;0.10;;;21.00;99.90;;;;;;5060512;28;20051;-77
2023/08/29 02:53:59;;;;;;;0.43;0.40;;;21.30;99.90;;;;;;5061252;28;20112;-76
2023/08/29 02:56:26;;;;;;;0.15;0.15;;;21.40;99.90;;;;;;5059363;28;20167;-76
2023/08/29 02:58:54;;;;;;;0.20;0.20;;;21.40;99.90;;;;;;5061769;28;20040;-78
2023/08/29 03:01:26;;;;;;;0.95;0.93;;;20.50;99.90;;;;;;5060291;28;20021;-76
2023/08/29 03:03:54;;;;;;;4.47;0.85;;;21.90;99.90;;;;;;5060589;28;20012;-75
2023/08/29 03:06:22;;;;;;;0.05;0.05;;;19.90;99.90;;;;;;5059967;28;20313;-78
2023/08/29 03:08:48;;;;;;;0.00;0.00;;;21.70;99.90;;;;;;5060341;28;20382;-78
2023/08/29 03:11:15;;;;;;;0.00;0.00;;;20.60;99.90;;;;;;5061214;28;20062;-76
2023/08/29 03:13:41;;;;;;;0.00;0.00;;;21.90;99.90;;;;;;5062122;28;20605;-76
2023/08/29 03:16:15;;;;;;;0.00;0.00;;;21.90;99.90;;;;;;5061553;28;20035;-76
2023/08/29 03:18:41;;;;;;;0.00;0.00;;;21.80;99.90;;;;;;5062884;28;20028;-76
2023/08/29 03:21:08;;;;;;;0.10;0.10;;;21.60;99.90;;;;;;5062981;28;20036;-78
2023/08/29 03:23:36;;;;;;;0.63;0.63;;;21.00;99.90;;;;;;5080716;28;20024;-78
2023/08/29 03:26:07;;;;;;;0.43;0.43;;;20.50;99.90;;;;;;5063945;28;20679;-76
2023/08/29 03:28:35;;;;;;;0.10;0.10;;;20.40;99.90;;;;;;5081464;28;20030;-76
2023/08/29 03:31:13;;;;;;;0.20;0.20;;;20.70;99.90;;;;;;5082106;28;20291;-77
2023/08/29 03:33:42;;;;;;;0.20;0.20;;;19.90;99.90;;;;;;5081855;28;20486;-75
2023/08/29 03:36:08;;;;;;;0.00;0.00;;;19.90;99.90;;;;;;5083036;28;20023;-76
2023/08/29 03:38:38;;;;;;;0.00;0.00;;;19.50;99.90;;;;;;5082328;28;20544;-76
2023/08/29 03:41:06;;;;;;;0.20;0.20;;;19.40;99.90;;;;;;5063960;28;20333;-76
2023/08/29 03:43:35;;;;;;;0.00;0.00;;;19.30;99.90;;;;;;5082386;28;20641;-75
2023/08/29 03:46:03;;;;;;;0.00;0.00;;;19.20;99.90;;;;;;5081177;28;20058;-75
2023/08/29 03:48:34;;;;;;;0.30;0.25;;;19.00;99.90;;;;;;5081592;28;20635;-75
2023/08/29 03:51:10;;;;;;;0.32;0.22;;;17.20;99.90;;;;;;5081340;28;20024;-75
2023/08/29 03:53:38;;;;;;;0.20;0.20;;;18.50;99.90;;;;;;5063903;28;20670;-75
2023/08/29 03:56:06;;;;;;;0.00;0.00;;;18.80;99.90;;;;;;5066980;28;20028;-75
2023/08/29 03:58:35;;;;;;;0.00;0.00;;;18.70;99.90;;;;;;5085709;28;20038;-76
2023/08/29 04:01:07;;;;;;;0.32;0.32;;;19.20;99.90;;;;;;5085208;28;20239;-75
2023/08/29 04:03:35;;;;;;;0.00;0.00;;;18.80;99.90;;;;;;5066766;28;20016;-76
2023/08/29 04:06:03;;;;;;;0.00;0.00;;;18.50;99.90;;;;;;5083921;28;20027;-76
2023/08/29 04:08:32;;;;;;;0.00;0.00;;;18.70;99.90;;;;;;5084226;28;20077;-76
2023/08/29 04:11:02;;;;;;;0.28;0.28;;;18.70;99.90;;;;;;5065726;28;20024;-76
2023/08/29 04:13:30;;;;;;;0.47;0.47;;;19.00;99.90;;;;;;5066155;28;20028;-75
2023/08/29 04:16:08;;;;;;;2.45;2.00;;;17.90;99.90;;;;;;5066355;28;20218;-76
2023/08/29 04:18:36;;;;;;;0.00;0.00;;;19.00;99.90;;;;;;5066011;28;20036;-75
2023/08/29 04:21:03;;;;;;;0.00;0.00;;;19.20;99.90;;;;;;5066570;28;20454;-78
2023/08/29 04:23:30;;;;;;;1.02;1.00;;;18.90;99.90;;;;;;5084443;28;20046;-78
2023/08/29 04:26:08;;;;;;;1.10;1.02;;;18.90;99.90;;;;;;5065931;28;20720;-78
2023/08/29 04:28:34;;;;;;;0.00;0.00;;;18.90;99.90;;;;;;5065120;28;20034;-78
2023/08/29 04:31:10;;;;;;;0.20;0.20;;;19.00;99.90;;;;;;5066140;28;20058;-77
2023/08/29 04:33:36;;;;;;;0.55;0.55;;;15.30;99.90;;;;;;5065020;28;20529;-77
2023/08/29 04:36:03;;;;;;;0.00;0.00;;;18.80;99.90;;;;;;5065565;28;20481;-77
2023/08/29 04:38:31;;;;;;;0.15;0.15;;;19.20;99.90;;;;;;5064638;28;20609;-78
2023/08/29 04:41:01;;;;;;;0.00;0.00;;;19.60;99.90;;;;;;5083757;28;20024;-78
2023/08/29 04:43:29;;;;;;;0.00;0.00;;;20.20;99.90;;;;;;5066039;28;20581;-78
2023/08/29 04:45:56;;;;;;;0.00;0.00;;;21.20;99.90;;;;;;5065289;28;20043;-76
2023/08/29 04:48:25;;;;;;;0.52;0.52;;;20.90;99.90;;;;;;5066675;28;20750;-75
2023/08/29 04:50:53;;;;;;;0.10;0.10;;;21.10;99.90;;;;;;5065364;28;20020;-76
2023/08/29 04:53:23;;;;;;;0.00;0.00;;;21.20;99.90;;;;;;5084503;28;20020;-76
2023/08/29 04:56:00;;;;;;;3.75;0.35;;;21.40;99.90;;;;;;5066606;28;20049;-77
2023/08/29 04:58:33;;;;;;;0.00;0.00;;;21.40;99.90;;;;;;5066713;28;20040;-77
2023/08/29 05:01:00;;;;;;;0.00;0.00;;;;;;;;;;5082304;28;20331;-75
2023/08/29 05:03:27;;;;;;;0.00;0.00;;;21.70;99.90;;;;;;5060694;28;20325;-78
2023/08/29 05:05:52;;;;;;;0.05;0.05;;;20.60;99.90;;;;;;5059897;28;20489;-77
2023/08/29 05:08:18;;;;;;;0.00;0.00;;;21.80;99.90;;;;;;5078690;28;20032;-76
2023/08/29 05:10:44;;;;;;;0.10;0.10;;;21.90;99.90;;;;;;5078851;28;20140;-77
2023/08/29 05:13:11;;;;;;;0.10;0.10;;;21.90;99.90;;;;;;5083438;28;20023;-76
2023/08/29 05:15:37;;;;;;;0.00;0.00;;;22.00;99.90;;;;;;5083913;28;20260;-76
2023/08/29 05:18:04;;;;;;;0.10;0.10;;;22.10;99.90;;;;;;5065040;28;20051;-77
2023/08/29 05:20:31;;;;;;;1.08;1.08;;;22.10;99.90;;;;;;5083834;28;20038;-76
2023/08/29 05:23:04;;;;;;;2.72;2.63;;;22.20;99.90;;;;;;5083173;28;20051;-77
2023/08/29 05:25:31;;;;;;;0.50;0.50;;;21.90;99.90;;;;;;5083195;28;20350;-77
2023/08/29 05:27:57;;;;;;;0.32;0.32;;;22.00;99.90;;;;;;5083007;28;20017;-80
2023/08/29 05:30:27;;;;;;;0.65;0.65;;;21.10;99.90;;;;;;5083760;28;20020;-77
2023/08/29 05:32:54;;;;;;;0.10;0.10;;;21.90;99.90;;;;;;5065135;28;20030;-77
2023/08/29 05:35:24;;;;;;;0.57;0.57;;;21.20;99.90;;;;;;5082900;28;20031;-79
2023/08/29 05:37:50;;;;;;;0.00;0.00;;;19.60;99.90;;;;;;5063499;28;20394;-77
2023/08/29 05:40:16;;;;;;;0.00;0.00;;;20.50;99.90;;;;;;5081807;28;20075;-77
2023/08/29 05:42:42;;;;;;;0.00;0.00;;;21.00;99.90;;;;;;5081614;28;20016;-79
2023/08/29 05:45:09;;;;;;;0.10;0.10;;;20.90;99.90;;;;;;5081847;28;20020;-78
2023/08/29 05:47:36;;;;;;;1.75;1.65;;;21.10;99.90;;;;;;5081392;28;20070;-76
2023/08/29 05:50:04;;;;;;;0.00;0.00;;;21.30;99.90;;;;;;5082563;28;20012;-76
2023/08/29 05:52:30;;;;;;;0.65;0.65;;;20.90;99.90;;;;;;5083015;28;20018;-76
2023/08/29 05:54:59;;;;;;;0.00;0.00;;;21.10;99.90;;;;;;5083255;28;20044;-76
2023/08/29 05:57:25;;;;;;;0.10;0.10;;;21.20;99.90;;;;;;5083157;28;20038;-77
2023/08/29 05:59:53;;;;;;;0.00;0.00;;;21.40;99.90;;;;;;5081781;28;20230;-76
2023/08/29 06:02:20;;;;;;;0.38;0.38;;;21.40;99.90;;;;;;5083028;28;20489;-76
2023/08/29 06:04:46;;;;;;;0.00;0.00;;;21.30;99.90;;;;;;5063475;28;20030;-78
2023/08/29 06:07:12;;;;;;;0.10;0.10;;;22.60;99.90;;;;;;5080377;28;20020;-77
2023/08/29 06:09:39;;;;;;;0.10;0.10;;;21.60;99.90;;;;;;5081657;28;20829;-77
2023/08/29 06:12:06;;;;;;;0.10;0.10;;;21.40;99.90;;;;;;5082718;28;20024;-79
2023/08/29 06:14:33;;;;;;;0.00;0.00;;;21.90;99.90;;;;;;5081664;28;20635;-79
2023/08/29 06:17:01;;;;;;;0.00;0.00;;;22.90;99.90;;;;;;5081097;28;20044;-75
2023/08/29 06:19:27;;;;;;;0.00;0.00;;;22.20;99.90;;;;;;5081706;28;20077;-76
2023/08/29 06:21:58;;;;;;;0.80;0.80;;;22.30;99.90;;;;;;5063273;28;20804;-76
2023/08/29 06:24:25;;;;;;;0.13;0.13;;;23.70;99.90;;;;;;5081245;28;20107;-76
2023/08/29 06:26:52;;;;;;;0.00;0.00;;;22.30;99.90;;;;;;5081158;28;20660;-77
2023/08/29 06:29:18;;;;;;;0.15;0.15;;;22.30;99.90;;;;;;5081625;28;20024;-75
2023/08/29 06:31:45;;;;;;;0.88;0.80;;;22.50;99.90;;;;;;5082137;28;20028;-77
2023/08/29 06:34:11;;;;;;;0.00;0.00;;;22.60;99.90;;;;;;5064636;28;20587;-76
2023/08/29 06:36:37;;;;;;;0.00;0.00;;;22.70;99.90;;;;;;5083038;28;20205;-79
2023/08/29 06:39:03;;;;;;;0.10;0.10;;;22.70;99.90;;;;;;5082878;28;20032;-76
2023/08/29 06:41:29;;;;;;;0.40;0.40;;;22.60;99.90;;;;;;5061115;28;20039;-76
2023/08/29 06:43:56;;;;;;;0.00;0.00;;;22.50;99.90;;;;;;5080095;28;20638;-78
2023/08/29 06:46:23;;;;;;;0.52;0.52;;;22.60;99.90;;;;;;5078523;28;20016;-75
2023/08/29 06:48:48;;;;;;;0.10;0.10;;;23.70;99.90;;;;;;5060201;28;20140;-79
2023/08/29 06:51:14;;;;;;;0.10;0.10;;;22.60;99.90;;;;;;5078030;28;20179;-75
2023/08/29 06:53:40;;;;;;;0.00;0.00;;;22.60;99.90;;;;;;5079223;28;20044;-78
2023/08/29 06:56:07;;;;;;;0.00;0.00;;;21.80;99.90;;;;;;5080270;28;20103;-78
2023/08/29 06:58:33;;;;;;;0.00;0.00;;;22.60;99.90;;;;;;5060613;28;20084;-78
2023/08/29 07:00:58;;;;;;;0.30;0.30;;;22.90;99.90;;;;;;5079886;28;20645;-75
2023/08/29 07:03:27;;;;;;;0.00;0.00;;;22.80;99.90;;;;;;5081744;28;20028;-75
2023/08/29 07:05:54;;;;;;;0.10;0.10;;;23.00;99.90;;;;;;5063692;28;20016;-75
2023/08/29 07:08:20;;;;;;;0.40;0.40;;;23.00;99.90;;;;;;5079731;28;20012;-76
2023/08/29 07:10:48;;;;;;;0.00;0.00;;;23.30;99.90;;;;;;5062099;28;20020;-76
2023/08/29 07:13:14;;;;;;;0.00;0.00;;;24.10;99.90;;;;;;5062896;28;20714;-75
2023/08/29 07:15:39;;;;;;;0.00;0.00;;;23.50;99.90;;;;;;5059990;28;20022;-76
2023/08/29 07:18:05;;;;;;;2.70;2.60;;;23.50;99.90;;;;;;5077840;28;20801;-76
2023/08/29 07:20:32;;;;;;;0.00;0.00;;;23.80;99.90;;;;;;5078748;28;20038;-77
2023/08/29 07:22:58;;;;;;;0.10;0.10;;;24.00;99.90;;;;;;5059773;28;20020;-77
2023/08/29 07:25:42;;;;;;;0.20;0.20;;;23.90;99.90;;;;;;5079538;28;20093;-76
2023/08/29 07:28:11;;;;;;;0.00;0.00;;;23.80;99.90;;;;;;5062364;28;20017;-77
2023/08/29 07:30:45;;;;;;;1.02;0.60;;;24.00;99.90;;;;;;5083074;28;20016;-78
2023/08/29 07:33:12;;;;;;;0.10;0.10;;;24.00;99.90;;;;;;5065750;28;20024;-77
2023/08/29 07:35:39;;;;;;;0.00;0.00;;;24.20;99.90;;;;;;5083276;28;20609;-76
2023/08/29 07:38:05;;;;;;;0.00;0.00;;;24.30;99.90;;;;;;5062984;28;20036;-81
2023/08/29 07:40:33;;;;;;;0.05;0.05;;;24.30;99.90;;;;;;5082877;28;20042;-77
2023/08/29 07:43:08;;;;;;;0.10;0.10;;;24.40;99.90;;;;;;5064388;28;20253;-77
2023/08/29 07:45:34;;;;;;;0.00;0.00;;;;;;;;;;5081914;28;20063;-74
2023/08/29 07:48:01;;;;;;;0.13;0.13;;;24.00;99.90;;;;;;5080617;28;20016;-74
2023/08/29 07:50:27;;;;;;;0.00;0.00;;;23.60;99.90;;;;;;5062057;28;20313;-78
2023/08/29 07:52:54;;;;;;;0.00;0.00;;;;;;;;;;5062019;28;20020;-73
2023/08/29 07:55:20;;;;;;;0.00;0.00;;;23.60;99.90;;;;;;5062191;28;20066;-77
2023/08/29 07:57:47;;;;;;;0.00;0.00;;;25.10;99.90;;;;;;5063152;28;20028;-79
2023/08/29 08:00:14;;;;;;;0.00;0.00;;;25.10;99.90;;;;;;5081812;28;20028;-75
2023/08/29 08:02:41;;;;;;;0.00;0.00;;;;;;;;;;5081107;28;20024;-80
2023/08/29 08:05:18;;;;;;;0.20;0.20;;;23.70;99.90;;;;;;5081686;28;20024;-76
2023/08/29 08:07:45;;;;;;;0.00;0.00;;;23.70;99.90;;;;;;5081964;28;20527;-78
2023/08/29 08:10:12;;;;;;;0.00;0.00;;;23.70;99.90;;;;;;5082361;28;20076;-79
2023/08/29 08:12:41;;;;;;;0.05;0.05;;;23.80;99.90;;;;;;5081938;28;20183;-76
2023/08/29 08:15:08;;;;;;;0.00;0.00;;;23.70;99.90;;;;;;5064416;28;20012;-76
2023/08/29 08:17:36;;;;;;;0.00;0.00;;;21.30;99.90;;;;;;5081859;28;20731;-76
2023/08/29 08:20:07;;;;;;;0.57;0.57;;;23.50;99.90;;;;;;5080899;28;20028;-77
2023/08/29 08:22:33;;;;;;;0.00;0.00;;;23.80;99.90;;;;;;5063839;28;20804;-76
2023/08/29 08:24:59;;;;;;;0.00;0.00;;;24.20;99.90;;;;;;5082328;28;20024;-76
2023/08/29 08:27:25;;;;;;;0.13;0.10;;;;;;;;;;5080941;28;20028;-79
2023/08/29 08:29:51;;;;;;;0.00;0.00;;;24.40;99.90;;;;;;5080082;28;20059;-78
2023/08/29 08:32:17;;;;;;;0.35;0.20;;;24.50;99.90;;;;;;5080318;28;20051;-78
2023/08/29 08:34:42;;;;;;;0.20;0.20;;;26.00;99.90;;;;;;5081087;28;20028;-78
2023/08/29 08:37:08;;;;;;;0.05;0.05;;;25.60;99.90;;;;;;5082374;28;20041;-78
2023/08/29 08:39:38;;;;;;;0.00;0.00;;;24.80;99.90;;;;;;5061997;28;20508;-79
2023/08/29 08:42:04;;;;;;;0.00;0.00;;;24.70;99.90;;;;;;5062832;28;20024;-77
2023/08/29 08:44:34;;;;;;;0.00;0.00;;;25.40;99.90;;;;;;5080547;28;20428;-76
2023/08/29 08:47:00;;;;;;;0.00;0.00;;;25.50;99.20;;;;;;5079813;28;20020;-81
2023/08/29 08:49:26;;;;;;;0.00;0.00;;;25.60;98.20;;;;;;5080745;28;20080;-77
2023/08/29 08:51:54;;;;;;;0.00;0.00;;;25.20;95.40;;;;;;5082116;28;20013;-75
2023/08/29 08:54:19;;;;;;;0.00;0.00;;;25.20;95.60;;;;;;5079647;28;20021;-81
2023/08/29 08:56:46;;;;;;;0.00;0.00;;;25.10;95.60;;;;;;5078589;28;20025;-79
2023/08/29 08:59:12;;;;;;;0.05;0.05;;;27.20;96.80;;;;;;5080379;28;20361;-76
2023/08/29 09:01:38;;;;;;;0.00;0.00;;;24.90;95.20;;;;;;5080031;28;20109;-76
2023/08/29 09:04:04;;;;;;;0.00;0.00;;;24.80;95.90;;;;;;5080534;28;20058;-78
2023/08/29 09:06:30;;;;;;;0.00;0.00;;;24.60;95.30;;;;;;5062863;28;20026;-77
2023/08/29 09:08:57;;;;;;;0.10;0.10;;;24.60;95.50;;;;;;5080701;28;20048;-77
2023/08/29 09:11:23;;;;;;;0.00;0.00;;;24.60;95.30;;;;;;5080184;28;20089;-78
2023/08/29 09:13:49;;;;;;;0.00;0.00;;;24.50;94.80;;;;;;5080362;28;20009;-77
2023/08/29 09:16:16;;;;;;;0.00;0.00;;;24.70;94.80;;;;;;5061689;28;20089;-77
2023/08/29 09:18:50;;;;;;;0.00;0.00;;;24.70;94.70;;;;;;5080448;28;20160;-78
2023/08/29 09:21:17;;;;;;;0.00;0.00;;;25.00;94.60;;;;;;5080645;28;20054;-81
2023/08/29 09:23:43;;;;;;;0.00;0.00;;;25.20;93.80;;;;;;5081696;28;20024;-78
2023/08/29 09:26:12;;;;;;;0.05;0.05;;;25.30;93.40;;;;;;5080041;28;20216;-77
2023/08/29 09:28:38;;;;;;;0.00;0.00;;;;;;;;;;5062425;28;20077;-77
2023/08/29 09:31:09;;;;;;;0.00;0.00;;;25.10;93.10;;;;;;5062158;28;20116;-75
2023/08/29 09:33:36;;;;;;;0.05;0.05;;;25.30;93.60;;;;;;5079034;28;20063;-76
2023/08/29 09:36:04;;;;;;;0.00;0.00;;;25.60;93.00;;;;;;5080867;28;20012;-76
2023/08/29 09:38:34;;;;;;;0.00;0.00;;;25.50;91.90;;;;;;5062254;28;20116;-77
2023/08/29 09:41:01;;;;;;;0.00;0.00;;;25.40;92.10;;;;;;5080561;28;20081;-82
2023/08/29 09:43:28;;;;;;;0.00;0.00;;;25.50;92.00;;;;;;5080643;28;20024;-75
2023/08/29 09:45:55;;;;;;;0.00;0.00;;;25.40;91.60;;;;;;5079991;28;20016;-76
2023/08/29 09:48:21;;;;;;;0.00;0.00;;;25.20;92.50;;;;;;5078323;28;20770;-75
2023/08/29 09:50:48;;;;;;;0.00;0.00;;;25.30;92.30;;;;;;5058783;28;20032;-76
2023/08/29 09:53:16;;;;;;;0.00;0.00;;;25.30;92.30;;;;;;5070846;28;20022;-76
2023/08/29 09:55:49;;;;;;;0.00;0.00;;;25.10;91.70;;;;;;5060330;28;20124;-82
2023/08/29 09:58:20;;;;;;;0.00;0.00;;;25.10;92.20;;;;;;5078486;28;20024;-76
2023/08/29 10:00:46;;;;;;;0.00;0.00;;;25.30;91.90;;;;;;5061801;28;20724;-79
2023/08/29 10:03:12;;;;;;;0.00;0.00;;;25.90;92.00;;;;;;5080687;28;20078;-80
2023/08/29 10:05:40;;;;;;;0.10;0.10;;;25.60;91.80;;;;;;5079296;28;20669;-76
2023/08/29 10:08:25;;;;;;;0.00;0.00;;;25.90;91.60;;;;;;5080305;28;20023;-76
2023/08/29 10:10:55;;;;;;;0.03;0.03;;;26.20;91.60;;;;;;5079565;28;20036;-75
2023/08/29 10:13:21;;;;;;;0.00;0.00;;;26.50;90.20;;;;;;5061942;28;20020;-76
2023/08/29 10:15:52;;;;;;;0.00;0.00;;;26.50;87.10;;;;;;5080482;28;20528;-74
2023/08/29 10:18:19;;;;;;;1.58;1.48;;;26.60;84.20;;;;;;5045100;28;20075;-74
2023/08/29 10:20:46;;;;;;;0.00;0.00;;;26.50;83.80;;;;;;5063539;28;20135;-78
2023/08/29 10:23:18;;;;;;;0.00;0.00;;;26.10;85.30;;;;;;5080524;28;20052;-77
2023/08/29 10:25:44;;;;;;;0.00;0.00;;;;;;;;;;5080912;28;20020;-75
2023/08/29 10:28:12;;;;;;;0.00;0.00;;;25.50;84.00;;;;;;5061818;28;20050;-76
2023/08/29 10:30:42;;;;;;;0.00;0.00;;;25.40;84.30;;;;;;5079251;28;20069;-76
2023/08/29 10:33:08;;;;;;;0.00;0.00;;;;;;;;;;5079416;28;20019;-78
2023/08/29 10:35:34;;;;;;;0.57;0.57;;;25.50;83.60;;;;;;5079603;28;20077;-75
2023/08/29 10:38:01;;;;;;;0.00;0.00;;;25.60;85.50;;;;;;5061684;28;20087;-77
2023/08/29 10:40:35;;;;;;;1.45;1.45;;;26.00;85.40;;;;;;5079473;28;20192;-76
2023/08/29 10:43:02;;;;;;;0.00;0.00;;;26.30;82.80;;;;;;5079105;28;20016;-84
2023/08/29 10:45:53;;;;;;;0.00;0.00;;;26.40;78.30;;;;;;5078582;28;20650;-76
2023/08/29 10:48:20;;;;;;;0.00;0.00;;;26.60;79.00;;;;;;5078940;28;20032;-77
2023/08/29 10:51:17;;;;;;;0.00;0.00;;;26.70;81.60;;;;;;5078212;28;20020;-78
2023/08/29 10:53:49;;;;;;;0.00;0.00;;;24.10;78.10;;;;;;5076198;28;20020;-77
2023/08/29 10:56:18;;;;;;;0.00;0.00;;;26.80;78.00;;;;;;5077223;28;20582;-77
2023/08/29 10:58:47;;;;;;;0.00;0.00;;;27.40;76.90;;;;;;5079563;28;20035;-77
2023/08/29 11:01:30;;;;;;;0.00;0.00;;;27.60;76.60;;;;;;5061448;28;20026;-77
2023/08/29 11:04:02;;;;;;;0.00;0.00;;;27.60;76.60;;;;;;5081974;28;20681;-76
2023/08/29 11:06:55;;;;;;;0.00;0.00;;;27.80;76.10;;;;;;5064938;28;20028;-76
2023/08/29 11:09:22;;;;;;;0.00;0.00;;;27.80;75.10;;;;;;5064574;28;20111;-84
2023/08/29 11:12:12;;;;;;;0.00;0.00;;;27.40;76.30;;;;;;5082866;28;20059;-78
2023/08/29 11:15:08;;;;;;;0.00;0.00;;;27.80;77.30;;;;;;5064432;28;20020;-77
2023/08/29 11:17:33;;;;;;;0.10;0.10;;;28.20;73.20;;;;;;4999938;28;20049;-79
2023/08/29 11:20:02;;;;;;;0.10;0.10;;;29.00;76.10;;;;;;4999238;28;20164;-77
2023/08/29 11:22:29;;;;;;;0.00;0.00;;;28.10;76.40;;;;;;4982211;28;20768;-78
2023/08/29 11:24:55;;;;;;;0.00;0.00;;;28.10;72.50;;;;;;4999956;28;20061;-77
2023/08/29 11:27:23;;;;;;;0.00;0.00;;;28.10;73.20;;;;;;4999673;28;20050;-77
2023/08/29 11:29:49;;;;;;;0.00;0.00;;;28.50;73.10;;;;;;4999170;28;20022;-77
2023/08/29 11:32:19;;;;;;;0.00;0.00;;;28.20;73.60;;;;;;4999394;28;20594;-77
2023/08/29 11:34:51;;;;;;;0.47;0.20;;;28.20;73.60;;;;;;4998916;28;20041;-76
2023/08/29 11:37:17;;;;;;;0.00;0.00;;;28.30;73.70;;;;;;4998876;28;20065;-80
2023/08/29 11:39:53;;;;;;;0.00;0.00;;;28.20;73.80;;;;;;4999068;28;20499;-79
2023/08/29 11:42:22;;;;;;;0.00;0.00;;;28.60;75.80;;;;;;4999468;28;20034;-76
2023/08/29 11:44:49;;;;;;;0.00;0.00;;;29.00;74.90;;;;;;4982955;28;20029;-80
2023/08/29 11:47:16;;;;;;;0.80;0.45;;;29.10;72.40;;;;;;4999193;28;20034;-78
2023/08/29 11:49:43;;;;;;;0.00;0.00;;;28.70;71.70;;;;;;4999320;28;20022;-78
2023/08/29 11:52:09;;;;;;;0.00;0.00;;;28.10;73.70;;;;;;4999348;28;20057;-77
2023/08/29 11:54:50;;;;;;;0.00;0.00;;;27.70;72.40;;;;;;5060885;28;20521;-87
2023/08/29 11:57:17;;;;;;;0.10;0.10;;;27.60;72.90;;;;;;5063803;28;20220;-77
2023/08/29 11:59:45;;;;;;;0.00;0.00;;;27.60;74.30;;;;;;5063512;28;20112;-76
2023/08/29 12:02:12;;;;;;;0.00;0.00;;;27.00;74.30;;;;;;5063198;28;20021;-76
2023/08/29 12:04:43;;;;;;;0.10;0.10;;;26.80;75.30;;;;;;5081901;28;20024;-76
2023/08/29 12:07:14;;;;;;;0.00;0.00;;;26.60;74.80;;;;;;5083149;28;20095;-76
2023/08/29 12:09:43;;;;;;;0.00;0.00;;;26.70;75.90;;;;;;5084280;28;20019;-82
2023/08/29 12:12:27;;;;;;;0.00;0.00;;;26.90;77.00;;;;;;5065435;28;20224;-75
2023/08/29 12:14:54;;;;;;;0.00;0.00;;;26.50;77.10;;;;;;5082511;28;20081;-76
2023/08/29 12:17:40;;;;;;;0.00;0.00;;;23.90;76.50;;;;;;5082220;28;20723;-79
2023/08/29 12:20:12;;;;;;;0.00;0.00;;;26.50;78.50;;;;;;5082151;28;20036;-87
2023/08/29 12:22:39;;;;;;;0.00;0.00;;;26.50;78.10;;;;;;5063776;28;20042;-76
2023/08/29 12:25:06;;;;;;;0.22;0.22;;;26.30;79.60;;;;;;5063798;28;20201;-81
2023/08/29 12:27:32;;;;;;;0.00;0.00;;;26.80;80.00;;;;;;5063537;28;20031;-76
2023/08/29 12:29:58;;;;;;;0.00;0.00;;;27.70;79.30;;;;;;5083243;28;20214;-76
2023/08/29 12:32:30;;;;;;;0.00;0.00;;;28.20;76.90;;;;;;5081282;28;20047;-75
2023/08/29 12:34:57;;;;;;;0.35;0.35;;;28.70;77.80;;;;;;5063151;28;20062;-76
2023/08/29 12:37:25;;;;;;;0.00;0.00;;;29.40;74.00;;;;;;5083591;28;20039;-76
2023/08/29 12:39:53;;;;;;;0.00;0.00;;;30.00;75.70;;;;;;5081289;28;20225;-76
2023/08/29 12:42:19;;;;;;;0.00;0.00;;;30.40;72.70;;;;;;5081071;28;20065;-76
2023/08/29 12:44:45;;;;;;;0.00;0.00;;;29.80;72.80;;;;;;5081532;28;20157;-76
2023/08/29 12:47:11;;;;;;;0.00;0.00;;;29.80;72.90;;;;;;5062989;28;20023;-75
2023/08/29 12:49:38;;;;;;;4.07;0.52;;;29.70;72.90;;;;;;5081806;28;20012;-76
2023/08/29 12:52:06;;;;;;;0.38;0.30;;;30.00;72.00;;;;;;5065844;28;20008;-76
2023/08/29 12:54:35;;;;;;;0.00;0.00;;;30.20;71.60;;;;;;5064752;28;20020;-76
2023/08/29 12:57:02;;;;;;;0.08;0.08;;;30.50;69.80;;;;;;5083772;28;20076;-75